Terminal Aerodrome Forecast
Issued by NWS

Home | Current Version | Previous Version | Text Only | Print | Product List | Glossary On
Versions: 1 2 3 4 5 6 7 8 9 10 11 12 13 14 15 16 17 18 19 20 21 22 23 24 25
000
FTUS43 KDLH 282341
TAFHIB
TAF
KHIB 282341Z 2900/2924 VRB03KT P6SM -DZ VCSH OVC012
     FM290200 VRB03KT 3SM -DZ BR VCSH OVC007
     FM290400 VRB02KT 1SM -DZ BR VCSH OVC003
     FM291300 29010KT P6SM BKN006 OVC018
     FM291600 30012G19KT P6SM BKN025
     FM292100 30013G20KT P6SM VCSH BKN040=

USA.gov is the U.S. government's official web portal to all federal, state and local government web resources and services.